الصفحة الرئيسية
METAR-TAF:

METAR-TAF

مطار :

Majuro, جزر مارشال

دائرة عرض: 07-04N, خط طول: 171-17E, ارتفاع: 2 متر

مراقبة الطقس الحالي

تاريخ ووقت الإصدار 12 دقيقة قبل الساعة 21:59UTC
ريح 12 عقدة من الجنوب الغربي
درجة الحرارة 28°درجة مئوية
الرطوبة 84%
ضغط 1014 hPa
الرؤية: 24.1 كم
غيوم متفرقة على ارتفاع 1400 قدم
غيوم مفككة على ارتفاع 4500 قدم
ملبد بالغيوم على ارتفاع 11000 قدم

METAR: PKMJ 252159Z 23012KT 15SM SCT014 BKN045 OVC110 28/25 A2994

زمن: 10:11 (22:11 UTC)

توقعات

تاريخ ووقت الإصدار 4ساعات و 46 دقيقة قبل الساعة 17:25UTC
التوقعات صالحة من25 الساعة 18 UTC إلى 26 الساعة 18 UTC
ريح 11 عقدة من الشرق
الرؤية: 10 كم
غيوم متفرقة على ارتفاع 1600 قدم
غيوم مفككة على ارتفاع 6000 قدم
ملبد بالغيوم على ارتفاع 13000 قدم
زخات في الجوار

TAF: PKMJ 251725Z 2518/2618 09011KT P6SM VCSH SCT016 BKN060 OVC130

أرصاد الطقس والتوقعات من أكثر من 4000 مطار (تقارير الطقس للمطار METAR والتنبؤ بالطقس بالمطارTAF).

المحطات المتاحة هي النقط الصفراء والحمراء على الخريطة.

حرك المؤشر فوق النقطة لمعرفة اسم المحطة.

ثم انقر لمعرفة أرصاد وتوقعات الطقس.

لتغيير الخارطة: اضغط على الأزرار الخضراء مع رمز الصليب الأسود للتكبير. على الزر الأخضر مع شرطة للتصغير، أو على الأسهم الخضراء للخرائط المجاورة.


METAR-TAF: